createdAt,value
2023-04-17T00:00:54.964Z,8.37
2023-04-17T00:03:23.347Z,8.20
2023-04-17T00:05:53.933Z,8.13
2023-04-17T00:08:23.556Z,7.73
2023-04-17T00:11:00.670Z,7.33
2023-04-17T00:13:34.945Z,7.30
2023-04-17T00:16:03.142Z,7.37
2023-04-17T00:18:31.436Z,7.57
2023-04-17T00:20:59.684Z,7.20
2023-04-17T00:23:29.871Z,7.37
2023-04-17T00:25:58.117Z,7.23
2023-04-17T00:28:26.277Z,6.47
2023-04-17T00:30:54.288Z,6.80
2023-04-17T00:33:23.635Z,7.53
2023-04-17T00:35:51.848Z,7.10
2023-04-17T00:38:20.062Z,7.10
2023-04-17T00:40:51.567Z,6.70
2023-04-17T00:43:19.784Z,6.43
2023-04-17T00:45:49.985Z,6.70
2023-04-17T00:48:19.112Z,6.27
2023-04-17T00:50:47.482Z,7.07
2023-04-17T00:53:15.650Z,6.90
2023-04-17T00:55:46.062Z,7.37
2023-04-17T00:58:16.491Z,6.67
2023-04-17T01:00:44.906Z,6.97
2023-04-17T01:03:13.528Z,7.33
2023-04-17T01:05:42.670Z,6.97
2023-04-17T01:08:11.517Z,6.87
2023-04-17T01:10:40.375Z,6.17
2023-04-17T01:13:12.001Z,6.83
2023-04-17T01:15:43.066Z,6.87
2023-04-17T01:18:11.504Z,6.90
2023-04-17T01:20:39.789Z,6.60
2023-04-17T01:23:07.863Z,7.10
2023-04-17T01:25:37.562Z,7.30
2023-04-17T01:28:06.072Z,7.10
2023-04-17T01:30:35.534Z,7.50
2023-04-17T01:33:03.694Z,6.87
2023-04-17T01:35:31.975Z,6.63
2023-04-17T01:38:00.210Z,5.97
2023-04-17T01:40:28.253Z,6.00
2023-04-17T01:42:59.985Z,6.00
2023-04-17T01:45:28.235Z,5.70
2023-04-17T01:47:56.296Z,5.07
2023-04-17T01:50:24.518Z,5.67
2023-04-17T01:52:52.591Z,4.80
2023-04-17T01:55:20.716Z,4.80
2023-04-17T01:57:50.317Z,4.70
2023-04-17T02:00:21.793Z,5.07
2023-04-17T02:02:50.198Z,5.10
2023-04-17T02:05:18.570Z,4.70
2023-04-17T02:07:46.992Z,4.90
2023-04-17T02:10:16.468Z,4.67
2023-04-17T02:12:44.511Z,4.63
2023-04-17T02:15:13.351Z,4.80
2023-04-17T02:17:42.908Z,4.43
2023-04-17T02:20:12.497Z,4.87
2023-04-17T02:22:40.921Z,4.90
2023-04-17T02:25:09.462Z,4.83
2023-04-17T02:27:37.464Z,4.97
2023-04-17T02:30:07.233Z,4.27
2023-04-17T02:32:35.539Z,4.50
2023-04-17T02:35:05.523Z,4.60
2023-04-17T02:37:33.540Z,4.10
2023-04-17T02:40:01.895Z,4.60
2023-04-17T02:42:30.366Z,4.40
2023-04-17T02:44:58.436Z,4.50
2023-04-17T02:47:26.787Z,4.43
2023-04-17T02:49:56.287Z,4.53
2023-04-17T02:52:25.773Z,4.40
2023-04-17T02:54:53.811Z,3.90
2023-04-17T02:57:21.833Z,4.37
2023-04-17T02:59:50.006Z,4.47
2023-04-17T03:02:22.353Z,4.10
2023-04-17T03:04:51.237Z,4.80
2023-04-17T03:07:19.667Z,5.10
2023-04-17T03:09:49.667Z,4.57
2023-04-17T03:12:18.594Z,4.80
2023-04-17T03:14:46.753Z,4.93
2023-04-17T03:17:16.171Z,4.13
2023-04-17T03:19:44.400Z,4.93
2023-04-17T03:22:13.442Z,4.60
2023-04-17T03:24:41.939Z,5.10
2023-04-17T03:27:11.354Z,4.63
2023-04-17T03:29:39.470Z,5.27
2023-04-17T03:32:08.337Z,5.37
2023-04-17T03:34:37.280Z,5.00
2023-04-17T03:37:05.300Z,5.20
2023-04-17T03:39:33.522Z,5.30
2023-04-17T03:42:01.889Z,5.03
2023-04-17T03:44:31.482Z,4.87
2023-04-17T03:46:59.791Z,5.70
2023-04-17T03:49:28.024Z,5.83
2023-04-17T03:51:57.699Z,5.97
2023-04-17T03:54:27.457Z,5.73
2023-04-17T03:56:56.159Z,6.37
2023-04-17T03:59:24.520Z,5.37
2023-04-17T04:01:54.545Z,5.23
2023-04-17T04:04:23.005Z,5.00
2023-04-17T04:06:53.028Z,5.13
2023-04-17T04:09:21.298Z,4.90
2023-04-17T04:11:49.964Z,5.03
2023-04-17T04:14:17.992Z,5.40
2023-04-17T04:16:46.334Z,5.40
2023-04-17T04:19:16.259Z,4.70
2023-04-17T04:21:45.218Z,4.77
2023-04-17T04:24:14.525Z,5.40
2023-04-17T04:26:43.411Z,5.10
2023-04-17T04:29:14.087Z,5.07
2023-04-17T04:31:46.883Z,4.90
2023-04-17T04:34:16.988Z,4.40
2023-04-17T04:36:50.393Z,4.77
2023-04-17T04:39:20.798Z,4.77
2023-04-17T04:41:50.670Z,4.93
2023-04-17T04:44:19.188Z,4.03
2023-04-17T04:46:47.875Z,4.83
2023-04-17T04:49:17.361Z,4.23
2023-04-17T04:51:45.585Z,4.97
2023-04-17T04:54:14.164Z,4.77
2023-04-17T04:56:44.927Z,5.23
2023-04-17T04:59:13.458Z,4.73
2023-04-17T05:01:42.338Z,5.00
2023-04-17T05:04:10.588Z,4.93
2023-04-17T05:06:40.286Z,5.40
2023-04-17T05:09:08.354Z,4.77
2023-04-17T05:11:36.764Z,4.73
2023-04-17T05:14:04.927Z,5.17
2023-04-17T05:16:33.420Z,5.30
2023-04-17T05:19:01.460Z,5.17
2023-04-17T05:21:31.178Z,5.17
2023-04-17T05:24:01.054Z,5.10
2023-04-17T05:26:29.267Z,5.70
2023-04-17T05:28:57.309Z,5.30
2023-04-17T05:31:26.349Z,5.53
2023-04-17T05:33:54.701Z,5.43
2023-04-17T05:36:22.994Z,6.07
2023-04-17T05:38:51.265Z,5.50
2023-04-17T05:41:20.742Z,5.60
2023-04-17T05:43:51.118Z,6.13
2023-04-17T05:46:19.296Z,5.93
2023-04-17T05:48:47.842Z,5.77
2023-04-17T05:51:16.309Z,6.50
2023-04-17T05:53:45.012Z,6.23
2023-04-17T05:56:13.156Z,7.17
2023-04-17T05:58:42.654Z,6.80
2023-04-17T06:01:13.192Z,6.47
2023-04-17T06:03:41.813Z,6.50
2023-04-17T06:06:10.196Z,7.60
2023-04-17T06:08:38.327Z,6.63
2023-04-17T06:11:06.966Z,6.77
2023-04-17T06:13:35.105Z,7.10
2023-04-17T06:16:04.519Z,6.87
2023-04-17T06:18:32.503Z,7.63
2023-04-17T06:21:01.105Z,7.97
2023-04-17T06:23:29.302Z,8.10
2023-04-17T06:25:57.861Z,8.27
2023-04-17T06:28:26.143Z,7.83
2023-04-17T06:30:54.250Z,7.33
2023-04-17T06:33:26.849Z,8.30
2023-04-17T06:35:55.186Z,7.20
2023-04-17T06:38:23.467Z,7.43
2023-04-17T06:40:52.717Z,8.07
2023-04-17T06:43:21.088Z,8.07
2023-04-17T06:45:50.201Z,8.80
2023-04-17T06:48:18.321Z,8.00
2023-04-17T06:50:48.068Z,7.17
2023-04-17T06:53:16.487Z,7.97
2023-04-17T06:55:45.217Z,7.70
2023-04-17T06:58:13.503Z,7.63
2023-04-17T07:00:41.977Z,7.37
2023-04-17T07:03:10.016Z,7.70
2023-04-17T07:05:38.406Z,7.50
2023-04-17T07:08:08.250Z,7.33
2023-04-17T07:10:36.579Z,7.57
2023-04-17T07:13:04.649Z,7.77
2023-04-17T07:15:34.894Z,7.23
2023-04-17T07:18:03.884Z,6.97
2023-04-17T07:20:33.062Z,6.97
2023-04-17T07:23:05.823Z,7.17
2023-04-17T07:25:37.058Z,7.17
2023-04-17T07:28:05.826Z,6.90
2023-04-17T07:30:34.233Z,7.20
2023-04-17T07:33:02.490Z,6.73
2023-04-17T07:35:30.618Z,7.23
2023-04-17T07:38:01.560Z,6.63
2023-04-17T07:40:29.720Z,7.07
2023-04-17T07:42:59.841Z,7.67
2023-04-17T07:45:28.618Z,6.50
2023-04-17T07:47:56.759Z,7.00
2023-04-17T07:50:25.141Z,6.60
2023-04-17T07:56:31.924Z,6.13
2023-04-17T08:05:27.957Z,5.60
2023-04-17T08:07:56.227Z,5.90
2023-04-17T08:10:24.249Z,5.70
2023-04-17T08:12:52.872Z,5.60
2023-04-17T08:15:20.918Z,5.47
2023-04-17T08:17:50.524Z,6.00
2023-04-17T08:20:18.885Z,5.60
2023-04-17T08:22:47.976Z,5.13
2023-04-17T08:25:16.410Z,4.83
2023-04-17T08:27:45.129Z,4.87
2023-04-17T08:30:18.620Z,4.73
2023-04-17T08:32:50.225Z,5.00
2023-04-17T08:35:20.817Z,5.40
2023-04-17T08:37:48.925Z,5.03
2023-04-17T08:40:18.708Z,5.47
2023-04-17T08:42:48.326Z,4.90
2023-04-17T08:45:17.481Z,5.37
2023-04-17T08:47:45.701Z,5.50
2023-04-17T08:50:15.291Z,5.13
2023-04-17T08:52:46.092Z,5.63
2023-04-17T08:55:16.738Z,5.00
2023-04-17T08:57:58.795Z,4.90
2023-04-17T09:00:31.504Z,5.33
2023-04-17T09:03:01.718Z,5.30
2023-04-17T09:05:33.498Z,5.37
2023-04-17T09:08:12.382Z,5.17
2023-04-17T09:10:43.352Z,5.30
2023-04-17T09:13:14.820Z,5.50
2023-04-17T09:15:44.622Z,5.13
2023-04-17T09:18:27.206Z,5.67
2023-04-17T09:20:57.565Z,5.00
2023-04-17T09:23:29.148Z,5.23
2023-04-17T09:26:10.851Z,5.07
2023-04-17T09:28:40.269Z,5.23
2023-04-17T09:31:26.441Z,5.17
2023-04-17T09:33:59.189Z,5.00
2023-04-17T09:36:30.595Z,5.60
2023-04-17T09:39:01.330Z,4.73
2023-04-17T09:41:31.123Z,4.80
2023-04-17T09:44:01.977Z,5.13
2023-04-17T09:46:38.983Z,5.00
2023-04-17T09:49:11.968Z,5.10
2023-04-17T09:51:40.885Z,4.97
2023-04-17T09:54:11.982Z,4.60
2023-04-17T09:56:41.212Z,4.70
2023-04-17T09:59:10.059Z,4.40
2023-04-17T10:01:40.015Z,4.53
2023-04-17T10:04:08.601Z,4.73
2023-04-17T10:06:37.712Z,4.30
2023-04-17T10:09:06.048Z,4.77
2023-04-17T10:11:40.123Z,4.50
2023-04-17T10:14:12.641Z,4.73
2023-04-17T10:16:43.653Z,4.70
2023-04-17T10:19:32.524Z,4.93
2023-04-17T10:22:32.622Z,4.07
2023-04-17T10:25:22.234Z,4.07
2023-04-17T10:28:00.594Z,4.50
2023-04-17T10:30:54.496Z,5.10
2023-04-17T10:33:27.902Z,4.43
2023-04-17T10:35:56.250Z,4.43
2023-04-17T10:38:33.803Z,4.73
2023-04-17T10:41:06.103Z,4.53
2023-04-17T10:43:35.742Z,4.60
2023-04-17T10:46:07.289Z,4.70
2023-04-17T10:48:38.366Z,5.07
2023-04-17T10:51:41.711Z,5.27
2023-04-17T10:54:13.837Z,5.00
2023-04-17T10:56:43.093Z,5.00
2023-04-17T10:59:13.914Z,5.00
2023-04-17T11:02:01.231Z,5.07
2023-04-17T11:04:34.004Z,5.03
2023-04-17T11:07:02.382Z,4.27
2023-04-17T11:09:30.807Z,4.57
2023-04-17T11:12:01.519Z,5.00
2023-04-17T11:14:32.345Z,5.53
2023-04-17T11:17:02.439Z,5.53
2023-04-17T11:19:30.648Z,5.30
2023-04-17T11:22:01.572Z,7.33
2023-04-17T11:24:31.195Z,5.83
2023-04-17T11:27:01.133Z,5.30
2023-04-17T11:29:30.745Z,6.17
2023-04-17T11:32:00.966Z,4.37
2023-04-17T11:34:29.159Z,4.70
2023-04-17T11:36:59.278Z,5.20
2023-04-17T11:39:30.148Z,4.30
2023-04-17T11:41:58.463Z,4.30
2023-04-17T11:44:27.155Z,3.67
2023-04-17T11:46:58.759Z,4.20
2023-04-17T11:49:27.542Z,3.33
2023-04-17T11:51:58.406Z,3.37
2023-04-17T11:54:27.898Z,3.30
2023-04-17T11:57:00.365Z,3.10
2023-04-17T11:59:32.738Z,4.20
2023-04-17T12:02:02.289Z,3.67
2023-04-17T12:04:33.652Z,3.80
2023-04-17T12:07:02.882Z,4.07
2023-04-17T12:09:32.307Z,4.47
2023-04-17T12:12:01.298Z,3.93
2023-04-17T12:14:29.330Z,4.57
2023-04-17T12:16:57.357Z,3.97
2023-04-17T12:19:27.360Z,3.40
2023-04-17T12:21:55.738Z,3.40
2023-04-17T12:24:25.233Z,3.70
2023-04-17T12:26:53.957Z,3.50
2023-04-17T12:29:36.211Z,3.20
2023-04-17T12:32:10.782Z,3.53
2023-04-17T12:34:40.480Z,3.33
2023-04-17T12:37:09.067Z,3.47
2023-04-17T12:39:37.130Z,3.03
2023-04-17T12:42:05.461Z,3.10
2023-04-17T12:44:33.499Z,2.50
2023-04-17T12:47:01.692Z,2.70
2023-04-17T12:49:29.696Z,2.90
2023-04-17T12:52:01.614Z,2.70
2023-04-17T12:54:31.179Z,2.90
2023-04-17T12:56:59.130Z,2.57
2023-04-17T12:59:27.100Z,2.50
2023-04-17T13:01:55.180Z,2.50
2023-04-17T13:04:23.416Z,2.30
2023-04-17T13:06:51.477Z,2.30
2023-04-17T13:09:21.074Z,2.40
2023-04-17T13:11:49.312Z,2.80
2023-04-17T13:14:17.339Z,3.00
2023-04-17T13:16:45.684Z,2.50
2023-04-17T13:19:14.253Z,2.63
2023-04-17T13:21:42.533Z,2.80
2023-04-17T13:24:14.663Z,2.83
2023-04-17T13:26:44.348Z,2.97
2023-04-17T13:29:12.577Z,2.90
2023-04-17T13:31:40.995Z,2.60
2023-04-17T13:34:10.874Z,2.77
2023-04-17T13:36:39.253Z,2.87
2023-04-17T13:39:07.264Z,2.80
2023-04-17T13:41:35.399Z,2.80
2023-04-17T13:44:04.829Z,2.70
2023-04-17T13:46:34.207Z,2.97
2023-04-17T13:49:02.387Z,2.90
2023-04-17T13:51:31.665Z,2.83
2023-04-17T13:53:59.749Z,2.97
2023-04-17T13:56:28.200Z,2.80
2023-04-17T13:58:57.545Z,3.10
2023-04-17T14:01:26.975Z,3.50
2023-04-17T14:03:55.302Z,3.60
2023-04-17T14:06:23.617Z,3.10
2023-04-17T14:08:51.640Z,3.47
2023-04-17T14:11:19.640Z,3.07
2023-04-17T14:13:47.702Z,3.17
2023-04-17T14:16:16.112Z,3.00
2023-04-17T14:18:48.442Z,2.70
2023-04-17T14:21:16.643Z,3.17
2023-04-17T14:23:44.971Z,2.80
2023-04-17T14:26:14.115Z,3.33
2023-04-17T14:28:42.082Z,3.13
2023-04-17T14:31:10.723Z,2.90
2023-04-17T14:33:38.718Z,3.00
2023-04-17T14:36:08.848Z,3.27
2023-04-17T14:38:36.842Z,3.20
2023-04-17T14:41:05.021Z,2.80
2023-04-17T14:43:33.134Z,3.07
2023-04-17T14:46:01.770Z,3.30
2023-04-17T14:48:31.264Z,2.70
2023-04-17T14:51:01.659Z,2.93
2023-04-17T14:53:30.962Z,3.27
2023-04-17T14:56:00.208Z,3.13
2023-04-17T14:58:28.447Z,3.33
2023-04-17T15:00:56.827Z,3.30
2023-04-17T15:03:25.260Z,3.30
2023-04-17T15:05:53.402Z,3.40
2023-04-17T15:08:21.451Z,3.83
2023-04-17T15:10:51.714Z,3.57
2023-04-17T15:13:19.850Z,3.37
2023-04-17T15:15:49.585Z,3.53
2023-04-17T15:18:17.609Z,3.97
2023-04-17T15:20:46.351Z,3.53
2023-04-17T15:23:15.536Z,4.00
2023-04-17T15:25:43.591Z,4.20
2023-04-17T15:28:13.439Z,3.53
2023-04-17T15:30:41.405Z,3.97
2023-04-17T15:33:10.437Z,4.20
2023-04-17T15:35:38.788Z,3.93
2023-04-17T15:38:07.736Z,3.93
2023-04-17T15:40:35.809Z,4.80
2023-04-17T15:43:03.837Z,3.87
2023-04-17T15:45:33.361Z,4.40
2023-04-17T15:48:02.084Z,4.17
2023-04-17T15:50:30.328Z,3.97
2023-04-17T15:52:58.322Z,4.40
2023-04-17T15:55:26.412Z,4.73
2023-04-17T15:57:54.375Z,4.87
2023-04-17T16:00:25.095Z,5.00
2023-04-17T16:02:54.704Z,4.40
2023-04-17T16:05:23.022Z,4.47
2023-04-17T16:07:51.089Z,4.87
2023-04-17T16:10:19.359Z,4.57
2023-04-17T16:12:47.551Z,4.50
2023-04-17T16:15:17.091Z,5.03
2023-04-17T16:17:45.781Z,5.00
2023-04-17T16:20:15.873Z,4.87
2023-04-17T16:22:43.964Z,4.50
2023-04-17T16:25:12.662Z,4.67
2023-04-17T16:27:41.101Z,4.23
2023-04-17T16:30:10.826Z,4.47
2023-04-17T16:32:38.893Z,4.70
2023-04-17T16:35:07.892Z,5.17
2023-04-17T16:37:37.675Z,5.33
2023-04-17T16:40:07.049Z,4.67
2023-04-17T16:42:35.256Z,5.93
2023-04-17T16:45:03.247Z,5.53
2023-04-17T16:47:31.572Z,5.73
2023-04-17T16:49:59.932Z,5.40
2023-04-17T16:52:28.007Z,5.57
2023-04-17T16:54:57.471Z,5.43
2023-04-17T16:57:25.475Z,5.27
2023-04-17T16:59:53.464Z,6.50
2023-04-17T17:02:21.709Z,6.40
2023-04-17T17:04:50.208Z,6.87
2023-04-17T17:07:18.159Z,6.33
2023-04-17T17:09:46.108Z,7.40
2023-04-17T17:12:15.484Z,6.50
2023-04-17T17:14:43.564Z,6.57
2023-04-17T17:17:11.579Z,5.93
2023-04-17T17:19:40.274Z,6.67
2023-04-17T17:22:08.504Z,6.43
2023-04-17T17:24:37.115Z,6.50
2023-04-17T17:27:05.766Z,5.63
2023-04-17T17:29:35.366Z,5.77
2023-04-17T17:32:03.628Z,5.33
2023-04-17T17:34:32.609Z,6.20
2023-04-17T17:37:00.957Z,5.80
2023-04-17T17:39:29.043Z,5.97
2023-04-17T17:41:57.429Z,6.00
2023-04-17T17:44:25.426Z,5.90
2023-04-17T17:46:54.936Z,6.40
2023-04-17T17:49:23.010Z,6.57
2023-04-17T17:51:51.015Z,5.90
2023-04-17T17:54:19.074Z,5.13
2023-04-17T17:56:47.066Z,5.67
2023-04-17T17:59:15.239Z,5.80
2023-04-17T18:01:43.422Z,5.90
2023-04-17T18:04:13.672Z,5.60
2023-04-17T18:06:42.711Z,5.00
2023-04-17T18:09:10.850Z,5.23
2023-04-17T18:11:39.281Z,4.80
2023-04-17T18:14:07.724Z,4.63
2023-04-17T18:16:37.198Z,5.20
2023-04-17T18:19:05.655Z,5.17
2023-04-17T18:21:35.194Z,5.13
2023-04-17T18:24:03.291Z,4.93
2023-04-17T18:26:32.041Z,4.83
2023-04-17T18:29:00.241Z,5.03
2023-04-17T18:31:28.413Z,4.83
2023-04-17T18:34:02.125Z,4.33
2023-04-17T18:36:30.827Z,4.90
2023-04-17T18:39:00.452Z,4.60
2023-04-17T18:41:28.525Z,4.50
2023-04-17T18:43:56.576Z,5.07
2023-04-17T18:46:27.075Z,5.00
2023-04-17T18:48:55.472Z,4.20
2023-04-17T18:51:23.972Z,4.73
2023-04-17T18:53:52.556Z,4.40
2023-04-17T18:56:22.603Z,4.37
2023-04-17T18:58:51.143Z,4.30
2023-04-17T19:03:47.685Z,4.60
2023-04-17T19:06:15.929Z,4.87
2023-04-17T19:08:44.072Z,4.87
2023-04-17T19:11:12.110Z,5.40
2023-04-17T19:13:42.404Z,4.40
2023-04-17T19:16:11.496Z,4.53
2023-04-17T19:18:39.662Z,4.50
2023-04-17T19:21:07.986Z,5.10
2023-04-17T19:23:37.209Z,5.00
2023-04-17T19:26:05.754Z,4.57
2023-04-17T19:28:33.832Z,4.73
2023-04-17T19:31:03.561Z,5.10
2023-04-17T19:33:33.476Z,4.57
2023-04-17T19:36:03.065Z,5.30
2023-04-17T19:38:31.259Z,5.10
2023-04-17T19:41:15.039Z,5.40
2023-04-17T19:43:45.432Z,5.37
2023-04-17T19:46:15.592Z,5.90
2023-04-17T19:48:44.893Z,5.63
2023-04-17T19:51:13.571Z,5.90
2023-04-17T19:53:43.668Z,6.50
2023-04-17T19:56:12.480Z,6.23
2023-04-17T19:58:41.771Z,6.30
2023-04-17T20:01:10.018Z,7.43
2023-04-17T20:03:42.186Z,6.90
2023-04-17T20:06:10.738Z,6.40
2023-04-17T20:08:38.729Z,6.70
2023-04-17T20:11:06.808Z,6.63
2023-04-17T20:13:34.829Z,6.67
2023-04-17T20:16:02.854Z,6.67
2023-04-17T20:18:31.024Z,6.20
2023-04-17T20:21:01.304Z,7.07
2023-04-17T20:23:29.419Z,6.70
2023-04-17T20:25:57.407Z,7.10
2023-04-17T20:28:28.826Z,6.73
2023-04-17T20:30:56.949Z,7.17
2023-04-17T20:33:25.053Z,6.67
2023-04-17T20:35:53.109Z,7.00
2023-04-17T20:38:22.580Z,6.83
2023-04-17T20:40:50.664Z,7.07
2023-04-17T20:43:18.807Z,6.50
2023-04-17T20:45:48.382Z,6.63
2023-04-17T20:48:16.420Z,7.20
2023-04-17T20:50:44.508Z,6.27
2023-04-17T20:53:12.485Z,7.00
2023-04-17T20:55:41.837Z,7.33
2023-04-17T20:58:10.289Z,6.93
2023-04-17T21:00:44.381Z,7.00
2023-04-17T21:03:22.388Z,6.80
2023-04-17T21:05:50.580Z,6.73
2023-04-17T21:08:18.683Z,6.40
2023-04-17T21:10:48.165Z,6.83
2023-04-17T21:13:16.198Z,7.27
2023-04-17T21:15:44.278Z,7.43
2023-04-17T21:18:12.315Z,7.37
2023-04-17T21:20:41.849Z,7.67
2023-04-17T21:23:09.882Z,7.77
2023-04-17T21:25:37.850Z,7.13
2023-04-17T21:28:07.239Z,7.73
2023-04-17T21:30:36.845Z,7.47
2023-04-17T21:33:05.178Z,7.07
2023-04-17T21:35:33.180Z,7.60
2023-04-17T21:38:01.102Z,8.33
2023-04-17T21:40:32.974Z,8.23
2023-04-17T21:43:02.164Z,8.60
2023-04-17T21:45:34.616Z,8.00
2023-04-17T21:48:05.905Z,8.47
2023-04-17T21:50:36.607Z,8.17
2023-04-17T21:53:04.603Z,8.10
2023-04-17T21:55:32.566Z,9.30
2023-04-17T21:58:00.617Z,9.27
2023-04-17T22:00:28.803Z,8.17
2023-04-17T22:02:58.379Z,9.40
2023-04-17T22:05:26.835Z,8.17
2023-04-17T22:07:55.692Z,8.80
2023-04-17T22:10:25.070Z,9.57
2023-04-17T22:12:53.281Z,8.90
2023-04-17T22:15:21.311Z,9.40
2023-04-17T22:17:49.459Z,9.67
2023-04-17T22:20:19.252Z,8.40
2023-04-17T22:23:42.466Z,8.67
2023-04-17T22:27:06.058Z,8.93
2023-04-17T22:30:29.520Z,9.13
2023-04-17T22:33:52.803Z,9.03
2023-04-17T22:37:16.586Z,8.77
2023-04-17T22:40:40.081Z,9.17
2023-04-17T22:44:03.589Z,8.53
2023-04-17T22:47:26.756Z,8.60
2023-04-17T22:50:50.146Z,8.87
2023-04-17T22:54:22.195Z,9.13
2023-04-17T22:57:46.977Z,8.60
2023-04-17T23:01:10.135Z,8.90
2023-04-17T23:04:33.429Z,8.83
2023-04-17T23:07:56.596Z,9.20
2023-04-17T23:10:26.080Z,9.23
2023-04-17T23:12:54.028Z,9.03
2023-04-17T23:15:22.664Z,8.07
2023-04-17T23:17:50.714Z,8.53
2023-04-17T23:20:18.873Z,8.53
2023-04-17T23:22:46.908Z,8.47
2023-04-17T23:25:15.125Z,8.60
2023-04-17T23:27:44.468Z,8.30
2023-04-17T23:30:13.388Z,8.60
2023-04-17T23:32:43.274Z,8.33
2023-04-17T23:35:11.289Z,8.53
2023-04-17T23:37:39.230Z,9.10
2023-04-17T23:40:08.811Z,8.30
2023-04-17T23:42:36.975Z,9.33
2023-04-17T23:45:07.699Z,8.77
2023-04-17T23:47:36.102Z,9.37
2023-04-17T23:50:05.443Z,8.60
2023-04-17T23:52:33.467Z,8.40
2023-04-17T23:55:01.615Z,8.67
2023-04-17T23:57:29.752Z,8.50
2023-04-17T23:59:57.882Z,8.40
